sensor_id;sensor_type;location;lat;lon;timestamp;temperature;humidity
27922;DHT22;15261;50.356;10.340;2023-05-07T08:36:24;18.60;83.10
27922;DHT22;15261;50.356;10.340;2023-05-07T08:38:54;18.60;82.50
27922;DHT22;15261;50.356;10.340;2023-05-07T08:41:20;18.70;82.60
27922;DHT22;15261;50.356;10.340;2023-05-07T08:43:49;18.50;81.40
27922;DHT22;15261;50.356;10.340;2023-05-07T08:46:25;18.60;82.10
27922;DHT22;15261;50.356;10.340;2023-05-07T08:48:58;18.80;81.50
27922;DHT22;15261;50.356;10.340;2023-05-07T08:51:24;18.60;82.20
27922;DHT22;15261;50.356;10.340;2023-05-07T08:57:05;19.00;80.90
27922;DHT22;15261;50.356;10.340;2023-05-07T08:59:31;18.90;80.70
27922;DHT22;15261;50.356;10.340;2023-05-07T09:01:58;19.00;80.70
27922;DHT22;15261;50.356;10.340;2023-05-07T09:04:24;19.30;81.00
27922;DHT22;15261;50.356;10.340;2023-05-07T09:06:50;19.50;78.90
27922;DHT22;15261;50.356;10.340;2023-05-07T09:09:18;19.40;79.60
27922;DHT22;15261;50.356;10.340;2023-05-07T09:11:46;19.50;80.60
27922;DHT22;15261;50.356;10.340;2023-05-07T09:14:12;19.90;79.30
27922;DHT22;15261;50.356;10.340;2023-05-07T09:16:38;20.00;78.50
27922;DHT22;15261;50.356;10.340;2023-05-07T09:19:05;20.10;77.90
27922;DHT22;15261;50.356;10.340;2023-05-07T09:21:30;20.00;77.30
27922;DHT22;15261;50.356;10.340;2023-05-07T09:23:56;19.80;76.90
27922;DHT22;15261;50.356;10.340;2023-05-07T09:26:23;19.30;78.90
27922;DHT22;15261;50.356;10.340;2023-05-07T09:28:51;19.50;80.00
27922;DHT22;15261;50.356;10.340;2023-05-07T09:31:17;19.50;77.40
27922;DHT22;15261;50.356;10.340;2023-05-07T09:33:43;19.60;78.30
27922;DHT22;15261;50.356;10.340;2023-05-07T09:36:09;19.70;77.70
27922;DHT22;15261;50.356;10.340;2023-05-07T09:38:36;19.70;77.50
27922;DHT22;15261;50.356;10.340;2023-05-07T09:41:10;19.80;78.60
27922;DHT22;15261;50.356;10.340;2023-05-07T09:43:39;19.90;77.60
27922;DHT22;15261;50.356;10.340;2023-05-07T09:46:15;20.00;77.30
27922;DHT22;15261;50.356;10.340;2023-05-07T09:48:43;20.20;76.50
27922;DHT22;15261;50.356;10.340;2023-05-07T09:51:23;20.30;75.50
27922;DHT22;15261;50.356;10.340;2023-05-07T09:53:56;20.30;75.70
27922;DHT22;15261;50.356;10.340;2023-05-07T09:56:22;20.50;76.70
27922;DHT22;15261;50.356;10.340;2023-05-07T09:59:03;20.60;74.20
27922;DHT22;15261;50.356;10.340;2023-05-07T10:01:30;20.80;74.60
27922;DHT22;15261;50.356;10.340;2023-05-07T10:04:02;20.90;73.90
27922;DHT22;15261;50.356;10.340;2023-05-07T10:06:29;20.80;73.20
27922;DHT22;15261;50.356;10.340;2023-05-07T10:08:59;21.20;75.60
27922;DHT22;15261;50.356;10.340;2023-05-07T10:14:29;21.60;69.80
27922;DHT22;15261;50.356;10.340;2023-05-07T10:16:59;21.70;71.70
27922;DHT22;15261;50.356;10.340;2023-05-07T10:19:48;21.70;70.60
27922;DHT22;15261;50.356;10.340;2023-05-07T10:22:16;21.70;71.70
27922;DHT22;15261;50.356;10.340;2023-05-07T10:24:48;21.60;69.90
27922;DHT22;15261;50.356;10.340;2023-05-07T10:27:15;21.80;69.70
27922;DHT22;15261;50.356;10.340;2023-05-07T10:32:40;21.10;70.20
27922;DHT22;15261;50.356;10.340;2023-05-07T10:35:14;20.90;71.50
27922;DHT22;15261;50.356;10.340;2023-05-07T10:37:48;21.20;73.30
27922;DHT22;15261;50.356;10.340;2023-05-07T10:40:14;21.80;68.80
27922;DHT22;15261;50.356;10.340;2023-05-07T10:42:53;22.10;68.00
27922;DHT22;15261;50.356;10.340;2023-05-07T10:45:24;22.10;67.80
27922;DHT22;15261;50.356;10.340;2023-05-07T10:50:44;21.70;68.80
27922;DHT22;15261;50.356;10.340;2023-05-07T10:53:44;21.90;68.80
27922;DHT22;15261;50.356;10.340;2023-05-07T10:56:37;22.00;67.60
27922;DHT22;15261;50.356;10.340;2023-05-07T11:02:06;22.20;68.40
27922;DHT22;15261;50.356;10.340;2023-05-07T11:05:25;21.90;65.30
27922;DHT22;15261;50.356;10.340;2023-05-07T11:08:09;22.00;66.50
27922;DHT22;15261;50.356;10.340;2023-05-07T11:10:54;21.90;64.50
27922;DHT22;15261;50.356;10.340;2023-05-07T11:13:43;21.70;64.40
27922;DHT22;15261;50.356;10.340;2023-05-07T11:16:32;21.30;65.50
27922;DHT22;15261;50.356;10.340;2023-05-07T11:18:58;21.10;67.40
27922;DHT22;15261;50.356;10.340;2023-05-07T11:21:40;21.10;68.70
27922;DHT22;15261;50.356;10.340;2023-05-07T11:24:07;21.50;69.40
27922;DHT22;15261;50.356;10.340;2023-05-07T11:26:50;21.70;67.90
27922;DHT22;15261;50.356;10.340;2023-05-07T11:32:41;21.80;67.70
27922;DHT22;15261;50.356;10.340;2023-05-07T11:35:06;21.90;68.30
27922;DHT22;15261;50.356;10.340;2023-05-07T11:37:32;22.00;66.70
27922;DHT22;15261;50.356;10.340;2023-05-07T11:40:08;22.10;66.30
27922;DHT22;15261;50.356;10.340;2023-05-07T11:46:09;22.20;66.50
27922;DHT22;15261;50.356;10.340;2023-05-07T11:48:35;22.10;65.40
27922;DHT22;15261;50.356;10.340;2023-05-07T11:51:05;22.30;65.50
27922;DHT22;15261;50.356;10.340;2023-05-07T11:53:39;22.60;66.50
27922;DHT22;15261;50.356;10.340;2023-05-07T11:56:09;23.00;66.00
27922;DHT22;15261;50.356;10.340;2023-05-07T11:58:35;23.40;64.30
27922;DHT22;15261;50.356;10.340;2023-05-07T12:01:02;23.50;64.40
27922;DHT22;15261;50.356;10.340;2023-05-07T12:03:27;23.70;63.60
27922;DHT22;15261;50.356;10.340;2023-05-07T12:05:53;23.70;60.80
27922;DHT22;15261;50.356;10.340;2023-05-07T12:08:20;23.50;60.00
27922;DHT22;15261;50.356;10.340;2023-05-07T12:10:50;23.30;60.30
27922;DHT22;15261;50.356;10.340;2023-05-07T12:13:24;22.80;62.40
27922;DHT22;15261;50.356;10.340;2023-05-07T12:15:54;23.00;62.60
27922;DHT22;15261;50.356;10.340;2023-05-07T12:18:21;23.00;62.70
27922;DHT22;15261;50.356;10.340;2023-05-07T12:20:47;22.90;61.40
27922;DHT22;15261;50.356;10.340;2023-05-07T12:23:13;22.80;62.70
27922;DHT22;15261;50.356;10.340;2023-05-07T12:25:40;22.80;64.80
27922;DHT22;15261;50.356;10.340;2023-05-07T12:28:13;22.90;62.60
27922;DHT22;15261;50.356;10.340;2023-05-07T12:30:40;22.80;61.70
27922;DHT22;15261;50.356;10.340;2023-05-07T12:33:07;22.80;63.40
27922;DHT22;15261;50.356;10.340;2023-05-07T12:35:40;23.00;63.50
27922;DHT22;15261;50.356;10.340;2023-05-07T12:38:14;23.30;61.00
27922;DHT22;15261;50.356;10.340;2023-05-07T12:40:44;23.60;58.80
27922;DHT22;15261;50.356;10.340;2023-05-07T12:43:23;24.10;59.30
27922;DHT22;15261;50.356;10.340;2023-05-07T12:45:50;24.30;58.60
27922;DHT22;15261;50.356;10.340;2023-05-07T12:48:16;23.80;58.50
27922;DHT22;15261;50.356;10.340;2023-05-07T12:50:41;23.50;59.80
27922;DHT22;15261;50.356;10.340;2023-05-07T12:53:10;23.50;59.40
27922;DHT22;15261;50.356;10.340;2023-05-07T12:55:51;23.20;59.40
27922;DHT22;15261;50.356;10.340;2023-05-07T12:58:20;23.20;58.80
27922;DHT22;15261;50.356;10.340;2023-05-07T13:00:49;22.90;59.50
27922;DHT22;15261;50.356;10.340;2023-05-07T13:03:23;22.50;60.50
27922;DHT22;15261;50.356;10.340;2023-05-07T13:05:49;22.30;60.60
27922;DHT22;15261;50.356;10.340;2023-05-07T13:11:01;21.90;62.00
27922;DHT22;15261;50.356;10.340;2023-05-07T13:13:33;22.10;63.60
27922;DHT22;15261;50.356;10.340;2023-05-07T13:15:59;22.20;61.90
27922;DHT22;15261;50.356;10.340;2023-05-07T13:18:26;22.00;62.60
27922;DHT22;15261;50.356;10.340;2023-05-07T13:20:52;22.20;61.10
27922;DHT22;15261;50.356;10.340;2023-05-07T13:23:18;22.30;60.90
27922;DHT22;15261;50.356;10.340;2023-05-07T13:25:44;22.50;60.60
27922;DHT22;15261;50.356;10.340;2023-05-07T13:28:09;22.40;60.50
27922;DHT22;15261;50.356;10.340;2023-05-07T13:30:35;22.20;60.20
27922;DHT22;15261;50.356;10.340;2023-05-07T13:33:01;22.40;61.60
27922;DHT22;15261;50.356;10.340;2023-05-07T13:35:26;22.50;61.50
27922;DHT22;15261;50.356;10.340;2023-05-07T13:37:52;22.30;60.70
27922;DHT22;15261;50.356;10.340;2023-05-07T13:40:18;21.70;62.00
27922;DHT22;15261;50.356;10.340;2023-05-07T13:42:44;21.70;63.10
27922;DHT22;15261;50.356;10.340;2023-05-07T13:45:10;21.80;63.40
27922;DHT22;15261;50.356;10.340;2023-05-07T13:47:42;21.90;63.30
27922;DHT22;15261;50.356;10.340;2023-05-07T13:50:11;21.80;63.20
27922;DHT22;15261;50.356;10.340;2023-05-07T13:52:40;21.90;63.00
27922;DHT22;15261;50.356;10.340;2023-05-07T13:55:06;22.00;64.20
27922;DHT22;15261;50.356;10.340;2023-05-07T13:57:32;22.10;61.80
27922;DHT22;15261;50.356;10.340;2023-05-07T13:59:58;22.10;61.90
27922;DHT22;15261;50.356;10.340;2023-05-07T14:02:23;22.20;62.30
27922;DHT22;15261;50.356;10.340;2023-05-07T14:04:49;22.20;61.70
27922;DHT22;15261;50.356;10.340;2023-05-07T14:07:14;22.10;62.00
27922;DHT22;15261;50.356;10.340;2023-05-07T14:09:40;22.00;60.40
27922;DHT22;15261;50.356;10.340;2023-05-07T14:12:06;22.00;60.40
27922;DHT22;15261;50.356;10.340;2023-05-07T14:14:31;21.90;61.30
27922;DHT22;15261;50.356;10.340;2023-05-07T14:16:57;21.70;61.00
27922;DHT22;15261;50.356;10.340;2023-05-07T14:19:22;21.80;62.10
27922;DHT22;15261;50.356;10.340;2023-05-07T14:21:48;21.90;61.80
27922;DHT22;15261;50.356;10.340;2023-05-07T14:24:14;22.00;59.90
27922;DHT22;15261;50.356;10.340;2023-05-07T14:26:40;22.00;59.90
27922;DHT22;15261;50.356;10.340;2023-05-07T14:29:05;21.80;60.70
27922;DHT22;15261;50.356;10.340;2023-05-07T14:31:31;21.60;60.60
27922;DHT22;15261;50.356;10.340;2023-05-07T14:33:58;21.80;62.20
27922;DHT22;15261;50.356;10.340;2023-05-07T14:36:24;21.90;61.20
27922;DHT22;15261;50.356;10.340;2023-05-07T14:38:52;21.90;60.50
27922;DHT22;15261;50.356;10.340;2023-05-07T14:41:19;21.70;60.60
27922;DHT22;15261;50.356;10.340;2023-05-07T14:43:46;21.60;61.90
27922;DHT22;15261;50.356;10.340;2023-05-07T14:46:16;21.60;61.80
27922;DHT22;15261;50.356;10.340;2023-05-07T14:48:43;21.50;61.30
27922;DHT22;15261;50.356;10.340;2023-05-07T14:51:10;21.50;61.80
27922;DHT22;15261;50.356;10.340;2023-05-07T14:53:35;21.50;61.60
27922;DHT22;15261;50.356;10.340;2023-05-07T14:56:01;21.40;61.10
27922;DHT22;15261;50.356;10.340;2023-05-07T14:58:29;21.40;60.70
27922;DHT22;15261;50.356;10.340;2023-05-07T15:00:55;21.60;61.00
27922;DHT22;15261;50.356;10.340;2023-05-07T15:03:20;21.70;60.00
27922;DHT22;15261;50.356;10.340;2023-05-07T15:05:47;21.80;59.70
27922;DHT22;15261;50.356;10.340;2023-05-07T15:08:12;21.70;59.60
27922;DHT22;15261;50.356;10.340;2023-05-07T15:10:38;21.80;59.60
27922;DHT22;15261;50.356;10.340;2023-05-07T15:13:07;21.80;59.60
27922;DHT22;15261;50.356;10.340;2023-05-07T15:15:33;21.80;59.30
27922;DHT22;15261;50.356;10.340;2023-05-07T15:17:59;21.90;60.40
27922;DHT22;15261;50.356;10.340;2023-05-07T15:20:27;22.00;60.10
27922;DHT22;15261;50.356;10.340;2023-05-07T15:22:53;22.10;60.20
27922;DHT22;15261;50.356;10.340;2023-05-07T15:25:19;22.20;60.70
27922;DHT22;15261;50.356;10.340;2023-05-07T15:27:44;22.10;63.90
27922;DHT22;15261;50.356;10.340;2023-05-07T15:30:11;21.90;66.20
27922;DHT22;15261;50.356;10.340;2023-05-07T15:32:37;21.60;66.90
27922;DHT22;15261;50.356;10.340;2023-05-07T15:35:04;21.20;67.80
27922;DHT22;15261;50.356;10.340;2023-05-07T15:37:33;21.00;68.60
27922;DHT22;15261;50.356;10.340;2023-05-07T15:39:59;20.90;69.60
27922;DHT22;15261;50.356;10.340;2023-05-07T15:42:27;20.70;69.50
27922;DHT22;15261;50.356;10.340;2023-05-07T15:44:53;20.70;70.50
27922;DHT22;15261;50.356;10.340;2023-05-07T15:47:18;20.70;70.00
27922;DHT22;15261;50.356;10.340;2023-05-07T15:49:47;20.60;70.30
27922;DHT22;15261;50.356;10.340;2023-05-07T15:52:12;20.60;70.10
27922;DHT22;15261;50.356;10.340;2023-05-07T15:54:41;20.50;70.70
27922;DHT22;15261;50.356;10.340;2023-05-07T15:57:43;20.60;70.90
27922;DHT22;15261;50.356;10.340;2023-05-07T16:00:09;20.50;71.00
27922;DHT22;15261;50.356;10.340;2023-05-07T16:02:36;20.50;71.60
27922;DHT22;15261;50.356;10.340;2023-05-07T16:05:02;20.30;71.90
27922;DHT22;15261;50.356;10.340;2023-05-07T16:07:28;20.20;72.00
27922;DHT22;15261;50.356;10.340;2023-05-07T16:09:53;20.30;72.40
27922;DHT22;15261;50.356;10.340;2023-05-07T16:12:19;20.20;71.90
27922;DHT22;15261;50.356;10.340;2023-05-07T16:14:44;20.00;72.50
27922;DHT22;15261;50.356;10.340;2023-05-07T16:17:10;20.00;72.90
27922;DHT22;15261;50.356;10.340;2023-05-07T16:19:36;20.10;73.20
27922;DHT22;15261;50.356;10.340;2023-05-07T16:22:01;20.10;73.10
27922;DHT22;15261;50.356;10.340;2023-05-07T16:24:27;19.80;73.10
27922;DHT22;15261;50.356;10.340;2023-05-07T16:26:52;19.60;73.30
27922;DHT22;15261;50.356;10.340;2023-05-07T16:29:18;19.50;74.00
27922;DHT22;15261;50.356;10.340;2023-05-07T16:31:44;19.40;74.60
27922;DHT22;15261;50.356;10.340;2023-05-07T16:34:10;19.30;74.50
27922;DHT22;15261;50.356;10.340;2023-05-07T16:36:36;19.30;75.00
27922;DHT22;15261;50.356;10.340;2023-05-07T16:39:01;19.40;75.00
27922;DHT22;15261;50.356;10.340;2023-05-07T16:41:27;19.30;74.40
27922;DHT22;15261;50.356;10.340;2023-05-07T16:43:53;19.20;74.60
27922;DHT22;15261;50.356;10.340;2023-05-07T16:46:19;19.20;75.30
27922;DHT22;15261;50.356;10.340;2023-05-07T16:48:44;19.30;75.00
27922;DHT22;15261;50.356;10.340;2023-05-07T16:51:10;19.30;74.60
27922;DHT22;15261;50.356;10.340;2023-05-07T16:53:39;19.40;75.20
27922;DHT22;15261;50.356;10.340;2023-05-07T16:56:07;19.30;74.50
27922;DHT22;15261;50.356;10.340;2023-05-07T16:58:33;19.40;75.30
27922;DHT22;15261;50.356;10.340;2023-05-07T17:01:00;19.40;74.60
27922;DHT22;15261;50.356;10.340;2023-05-07T17:03:29;19.30;74.00
27922;DHT22;15261;50.356;10.340;2023-05-07T17:05:56;19.20;73.90
27922;DHT22;15261;50.356;10.340;2023-05-07T17:08:22;19.00;74.70
27922;DHT22;15261;50.356;10.340;2023-05-07T17:10:47;18.90;74.60
27922;DHT22;15261;50.356;10.340;2023-05-07T17:13:13;18.80;74.30
27922;DHT22;15261;50.356;10.340;2023-05-07T17:15:39;18.70;73.70
27922;DHT22;15261;50.356;10.340;2023-05-07T17:18:06;18.70;74.50
27922;DHT22;15261;50.356;10.340;2023-05-07T17:20:31;18.80;74.90
27922;DHT22;15261;50.356;10.340;2023-05-07T17:22:57;18.80;74.70
27922;DHT22;15261;50.356;10.340;2023-05-07T17:25:23;18.70;74.70
27922;DHT22;15261;50.356;10.340;2023-05-07T17:27:48;18.60;74.40
27922;DHT22;15261;50.356;10.340;2023-05-07T17:30:14;18.40;73.90
27922;DHT22;15261;50.356;10.340;2023-05-07T17:32:40;18.40;74.70
27922;DHT22;15261;50.356;10.340;2023-05-07T17:35:07;18.40;74.50
27922;DHT22;15261;50.356;10.340;2023-05-07T17:37:32;18.10;74.70
27922;DHT22;15261;50.356;10.340;2023-05-07T17:39:59;18.00;75.50
27922;DHT22;15261;50.356;10.340;2023-05-07T17:42:24;18.00;76.10
27922;DHT22;15261;50.356;10.340;2023-05-07T17:44:50;17.90;76.30
27922;DHT22;15261;50.356;10.340;2023-05-07T17:47:15;17.90;76.20
27922;DHT22;15261;50.356;10.340;2023-05-07T17:49:42;17.90;76.40
27922;DHT22;15261;50.356;10.340;2023-05-07T17:52:09;17.90;76.40
27922;DHT22;15261;50.356;10.340;2023-05-07T17:54:34;17.70;76.70
27922;DHT22;15261;50.356;10.340;2023-05-07T17:57:00;17.70;77.30
27922;DHT22;15261;50.356;10.340;2023-05-07T17:59:28;17.60;77.30
27922;DHT22;15261;50.356;10.340;2023-05-07T18:01:57;17.40;77.80
27922;DHT22;15261;50.356;10.340;2023-05-07T18:04:22;17.30;78.30
27922;DHT22;15261;50.356;10.340;2023-05-07T18:06:50;17.30;78.80
27922;DHT22;15261;50.356;10.340;2023-05-07T18:09:16;17.20;78.70
27922;DHT22;15261;50.356;10.340;2023-05-07T18:11:41;17.20;79.10
27922;DHT22;15261;50.356;10.340;2023-05-07T18:14:07;17.10;79.40
27922;DHT22;15261;50.356;10.340;2023-05-07T18:16:33;17.10;79.90
27922;DHT22;15261;50.356;10.340;2023-05-07T18:18:58;17.00;79.70
27922;DHT22;15261;50.356;10.340;2023-05-07T18:21:24;17.00;80.00
27922;DHT22;15261;50.356;10.340;2023-05-07T18:23:50;16.90;80.30
27922;DHT22;15261;50.356;10.340;2023-05-07T18:26:16;16.90;80.60
27922;DHT22;15261;50.356;10.340;2023-05-07T18:28:42;16.80;81.00
27922;DHT22;15261;50.356;10.340;2023-05-07T18:31:08;16.80;81.10
27922;DHT22;15261;50.356;10.340;2023-05-07T18:33:34;16.70;81.20
27922;DHT22;15261;50.356;10.340;2023-05-07T18:36:00;16.60;81.30
27922;DHT22;15261;50.356;10.340;2023-05-07T18:38:25;16.50;81.70
27922;DHT22;15261;50.356;10.340;2023-05-07T18:40:51;16.50;82.00
27922;DHT22;15261;50.356;10.340;2023-05-07T18:43:19;16.40;82.20
27922;DHT22;15261;50.356;10.340;2023-05-07T18:45:48;16.40;82.70
27922;DHT22;15261;50.356;10.340;2023-05-07T18:48:14;16.30;83.10
27922;DHT22;15261;50.356;10.340;2023-05-07T18:50:44;16.30;83.30
27922;DHT22;15261;50.356;10.340;2023-05-07T18:53:10;16.30;83.40
27922;DHT22;15261;50.356;10.340;2023-05-07T18:55:35;16.20;83.40
27922;DHT22;15261;50.356;10.340;2023-05-07T18:58:01;16.10;84.10
27922;DHT22;15261;50.356;10.340;2023-05-07T19:00:27;16.10;83.90
27922;DHT22;15261;50.356;10.340;2023-05-07T19:02:53;15.90;84.00
27922;DHT22;15261;50.356;10.340;2023-05-07T19:05:19;16.00;84.60
27922;DHT22;15261;50.356;10.340;2023-05-07T19:07:45;15.80;84.70
27922;DHT22;15261;50.356;10.340;2023-05-07T19:10:11;15.80;84.80
27922;DHT22;15261;50.356;10.340;2023-05-07T19:12:37;15.70;85.20
27922;DHT22;15261;50.356;10.340;2023-05-07T19:15:03;15.70;85.40
27922;DHT22;15261;50.356;10.340;2023-05-07T19:17:28;15.60;85.30
27922;DHT22;15261;50.356;10.340;2023-05-07T19:19:57;15.60;85.40
27922;DHT22;15261;50.356;10.340;2023-05-07T19:22:23;15.60;85.50
27922;DHT22;15261;50.356;10.340;2023-05-07T19:24:48;15.50;85.40
27922;DHT22;15261;50.356;10.340;2023-05-07T19:27:14;15.50;85.60
27922;DHT22;15261;50.356;10.340;2023-05-07T19:29:42;15.40;85.60
27922;DHT22;15261;50.356;10.340;2023-05-07T19:32:07;15.40;85.70
27922;DHT22;15261;50.356;10.340;2023-05-07T19:34:33;15.40;85.20
27922;DHT22;15261;50.356;10.340;2023-05-07T19:37:11;15.30;85.10
27922;DHT22;15261;50.356;10.340;2023-05-07T19:39:36;15.20;85.40
27922;DHT22;15261;50.356;10.340;2023-05-07T19:42:02;15.30;86.90
27922;DHT22;15261;50.356;10.340;2023-05-07T19:47:52;15.40;86.00
27922;DHT22;15261;50.356;10.340;2023-05-07T19:50:20;15.30;85.90
27922;DHT22;15261;50.356;10.340;2023-05-07T19:52:48;15.30;85.70
27922;DHT22;15261;50.356;10.340;2023-05-07T19:55:13;15.20;85.70
27922;DHT22;15261;50.356;10.340;2023-05-07T19:57:39;15.10;85.50
27922;DHT22;15261;50.356;10.340;2023-05-07T20:00:05;15.00;86.40
27922;DHT22;15261;50.356;10.340;2023-05-07T20:02:31;14.90;86.40
27922;DHT22;15261;50.356;10.340;2023-05-07T20:04:57;14.90;86.70
27922;DHT22;15261;50.356;10.340;2023-05-07T20:07:23;14.90;86.70
27922;DHT22;15261;50.356;10.340;2023-05-07T20:09:48;14.80;87.00
27922;DHT22;15261;50.356;10.340;2023-05-07T20:12:14;14.70;87.10
27922;DHT22;15261;50.356;10.340;2023-05-07T20:14:39;14.70;87.40
27922;DHT22;15261;50.356;10.340;2023-05-07T20:17:05;14.60;87.40
27922;DHT22;15261;50.356;10.340;2023-05-07T20:19:31;14.60;87.40
27922;DHT22;15261;50.356;10.340;2023-05-07T20:21:56;14.60;87.40
27922;DHT22;15261;50.356;10.340;2023-05-07T20:24:22;14.60;87.40
27922;DHT22;15261;50.356;10.340;2023-05-07T20:26:47;14.50;87.80
27922;DHT22;15261;50.356;10.340;2023-05-07T20:29:39;14.50;87.90
27922;DHT22;15261;50.356;10.340;2023-05-07T20:32:05;14.50;88.10
27922;DHT22;15261;50.356;10.340;2023-05-07T20:34:30;14.50;87.80
27922;DHT22;15261;50.356;10.340;2023-05-07T20:37:03;14.50;87.90
27922;DHT22;15261;50.356;10.340;2023-05-07T20:39:30;14.50;87.90
27922;DHT22;15261;50.356;10.340;2023-05-07T20:41:55;14.40;88.00
27922;DHT22;15261;50.356;10.340;2023-05-07T20:44:23;14.40;88.10
27922;DHT22;15261;50.356;10.340;2023-05-07T20:46:49;14.40;88.60
27922;DHT22;15261;50.356;10.340;2023-05-07T20:49:15;14.40;88.80
27922;DHT22;15261;50.356;10.340;2023-05-07T20:51:40;14.40;88.70
27922;DHT22;15261;50.356;10.340;2023-05-07T20:54:06;14.40;89.00
27922;DHT22;15261;50.356;10.340;2023-05-07T20:56:33;14.40;89.20
27922;DHT22;15261;50.356;10.340;2023-05-07T20:58:58;14.40;89.00
27922;DHT22;15261;50.356;10.340;2023-05-07T21:01:24;14.30;89.10
27922;DHT22;15261;50.356;10.340;2023-05-07T21:03:49;14.40;89.20
27922;DHT22;15261;50.356;10.340;2023-05-07T21:06:18;14.30;89.30
27922;DHT22;15261;50.356;10.340;2023-05-07T21:08:43;14.30;90.00
27922;DHT22;15261;50.356;10.340;2023-05-07T21:11:09;14.30;89.80
27922;DHT22;15261;50.356;10.340;2023-05-07T21:13:34;14.20;89.50
27922;DHT22;15261;50.356;10.340;2023-05-07T21:16:00;14.30;89.50
27922;DHT22;15261;50.356;10.340;2023-05-07T21:18:26;14.20;89.70
27922;DHT22;15261;50.356;10.340;2023-05-07T21:20:53;14.10;89.70
27922;DHT22;15261;50.356;10.340;2023-05-07T21:23:18;14.10;90.10
27922;DHT22;15261;50.356;10.340;2023-05-07T21:25:44;14.10;90.10
27922;DHT22;15261;50.356;10.340;2023-05-07T21:28:11;14.10;90.20
27922;DHT22;15261;50.356;10.340;2023-05-07T21:30:37;14.20;90.30
27922;DHT22;15261;50.356;10.340;2023-05-07T21:33:03;14.10;90.10
27922;DHT22;15261;50.356;10.340;2023-05-07T21:35:28;14.20;90.20
27922;DHT22;15261;50.356;10.340;2023-05-07T21:37:54;14.10;90.10
27922;DHT22;15261;50.356;10.340;2023-05-07T21:40:36;14.10;90.20
27922;DHT22;15261;50.356;10.340;2023-05-07T21:43:02;14.10;90.30
27922;DHT22;15261;50.356;10.340;2023-05-07T21:45:27;14.10;90.20
27922;DHT22;15261;50.356;10.340;2023-05-07T21:47:53;14.10;90.30
27922;DHT22;15261;50.356;10.340;2023-05-07T21:50:19;14.10;90.50
27922;DHT22;15261;50.356;10.340;2023-05-07T21:52:44;14.10;90.50
27922;DHT22;15261;50.356;10.340;2023-05-07T21:55:11;14.00;90.60
27922;DHT22;15261;50.356;10.340;2023-05-07T21:57:36;14.00;90.60
27922;DHT22;15261;50.356;10.340;2023-05-07T22:00:05;13.90;90.60
27922;DHT22;15261;50.356;10.340;2023-05-07T22:02:32;13.90;90.80
27922;DHT22;15261;50.356;10.340;2023-05-07T22:04:58;13.80;91.00
27922;DHT22;15261;50.356;10.340;2023-05-07T22:07:23;13.80;91.20
27922;DHT22;15261;50.356;10.340;2023-05-07T22:09:49;13.90;91.30
27922;DHT22;15261;50.356;10.340;2023-05-07T22:12:14;13.90;91.20
27922;DHT22;15261;50.356;10.340;2023-05-07T22:14:40;13.90;91.10
27922;DHT22;15261;50.356;10.340;2023-05-07T22:17:05;13.90;91.10
27922;DHT22;15261;50.356;10.340;2023-05-07T22:19:31;13.90;91.10
27922;DHT22;15261;50.356;10.340;2023-05-07T22:21:57;13.90;91.10
27922;DHT22;15261;50.356;10.340;2023-05-07T22:24:22;13.80;91.20
27922;DHT22;15261;50.356;10.340;2023-05-07T22:26:48;13.80;91.20
27922;DHT22;15261;50.356;10.340;2023-05-07T22:29:13;13.80;91.30
27922;DHT22;15261;50.356;10.340;2023-05-07T22:31:39;13.80;91.40
27922;DHT22;15261;50.356;10.340;2023-05-07T22:34:04;13.80;91.40
27922;DHT22;15261;50.356;10.340;2023-05-07T22:36:30;13.70;91.20
27922;DHT22;15261;50.356;10.340;2023-05-07T22:38:56;13.60;91.50
27922;DHT22;15261;50.356;10.340;2023-05-07T22:41:21;13.60;91.70
27922;DHT22;15261;50.356;10.340;2023-05-07T22:43:48;13.60;91.70
27922;DHT22;15261;50.356;10.340;2023-05-07T22:46:13;13.60;91.70
27922;DHT22;15261;50.356;10.340;2023-05-07T22:48:39;13.60;91.80
27922;DHT22;15261;50.356;10.340;2023-05-07T22:51:05;13.50;92.00
27922;DHT22;15261;50.356;10.340;2023-05-07T22:53:30;13.40;92.10
27922;DHT22;15261;50.356;10.340;2023-05-07T22:55:56;13.30;92.30
27922;DHT22;15261;50.356;10.340;2023-05-07T22:58:22;13.20;92.50
27922;DHT22;15261;50.356;10.340;2023-05-07T23:00:48;13.10;92.70
27922;DHT22;15261;50.356;10.340;2023-05-07T23:03:13;13.10;92.90
27922;DHT22;15261;50.356;10.340;2023-05-07T23:05:39;12.90;93.20
27922;DHT22;15261;50.356;10.340;2023-05-07T23:08:05;12.80;93.70
27922;DHT22;15261;50.356;10.340;2023-05-07T23:10:30;12.80;93.70
27922;DHT22;15261;50.356;10.340;2023-05-07T23:12:59;12.90;93.80
27922;DHT22;15261;50.356;10.340;2023-05-07T23:15:24;12.80;93.90
27922;DHT22;15261;50.356;10.340;2023-05-07T23:17:50;12.90;93.90
27922;DHT22;15261;50.356;10.340;2023-05-07T23:20:15;13.00;93.70
27922;DHT22;15261;50.356;10.340;2023-05-07T23:22:41;13.10;93.70
27922;DHT22;15261;50.356;10.340;2023-05-07T23:25:07;13.00;93.80
27922;DHT22;15261;50.356;10.340;2023-05-07T23:27:33;12.90;94.10
27922;DHT22;15261;50.356;10.340;2023-05-07T23:29:59;12.90;94.20
27922;DHT22;15261;50.356;10.340;2023-05-07T23:32:25;12.90;94.20
27922;DHT22;15261;50.356;10.340;2023-05-07T23:34:51;13.00;94.20
27922;DHT22;15261;50.356;10.340;2023-05-07T23:37:20;13.00;94.00
27922;DHT22;15261;50.356;10.340;2023-05-07T23:39:45;13.10;94.00
27922;DHT22;15261;50.356;10.340;2023-05-07T23:42:11;13.10;94.30
27922;DHT22;15261;50.356;10.340;2023-05-07T23:44:37;13.10;93.60
27922;DHT22;15261;50.356;10.340;2023-05-07T23:47:03;13.10;93.70
27922;DHT22;15261;50.356;10.340;2023-05-07T23:49:29;13.10;93.70
27922;DHT22;15261;50.356;10.340;2023-05-07T23:51:54;13.10;93.70
27922;DHT22;15261;50.356;10.340;2023-05-07T23:54:20;13.10;93.80
27922;DHT22;15261;50.356;10.340;2023-05-07T23:56:45;13.10;93.80
27922;DHT22;15261;50.356;10.340;2023-05-07T23:59:12;13.10;93.70
